Time;durP1;ratioP1;P1;durP2;ratioP2;P2;SDS_P1;SDS_P2;PMS_P1;PMS_P2;Temp;Humidity;BMP_temperature;BMP_pressure;BME280_temperature;BME280_humidity;BME280_pressure;Samples;Min_cycle;Max_cycle;Signal;HPM_P1;HPM_P2
2023/05/13 00:00:04;;;;;;;32.40;13.20;;;;;;;10.96;65.87;101910.64;107522;1251;98369;-68
2023/05/13 00:02:52;;;;;;;33.00;11.90;;;;;;;10.97;66.01;101908.59;107524;1251;114121;-66
2023/05/13 00:05:21;;;;;;;37.10;12.20;;;;;;;10.99;65.89;101907.36;107613;1251;108769;-69
2023/05/13 00:07:50;;;;;;;33.50;12.00;;;;;;;11.00;66.07;101910.36;107549;1251;108151;-70
2023/05/13 00:10:19;;;;;;;39.30;13.40;;;;;;;10.99;66.22;101909.58;107629;1251;97846;-68
2023/05/13 00:12:48;;;;;;;35.40;12.10;;;;;;;10.95;66.14;101908.91;107621;1250;98366;-69
2023/05/13 00:15:16;;;;;;;24.50;12.00;;;;;;;10.92;66.16;101907.16;107549;1254;112806;-67
2023/05/13 00:17:45;;;;;;;31.70;12.00;;;;;;;10.88;66.44;101905.11;107636;1253;109669;-67
2023/05/13 00:20:13;;;;;;;34.40;13.50;;;;;;;10.85;66.42;101904.45;107581;1250;108131;-66
2023/05/13 00:22:41;;;;;;;31.50;12.20;;;;;;;10.81;66.52;101903.80;107598;1251;97813;-66
2023/05/13 00:25:10;;;;;;;41.70;12.20;;;;;;;10.79;66.43;101909.92;107584;1251;98355;-68
2023/05/13 00:27:38;;;;;;;34.20;12.20;;;;;;;10.78;66.69;101913.88;107550;1252;111716;-67
2023/05/13 00:30:09;;;;;;;28.30;11.40;;;;;;;10.79;66.96;101911.54;107596;1251;109047;-68
2023/05/13 00:32:37;;;;;;;28.20;11.20;;;;;;;10.80;67.20;101906.44;107537;1251;107661;-65
2023/05/13 00:35:09;;;;;;;27.10;11.90;;;;;;;10.80;67.14;101904.11;107516;1250;97827;-68
2023/05/13 00:37:37;;;;;;;30.80;11.90;;;;;;;10.78;67.19;101904.39;107592;1250;97714;-65
2023/05/13 00:40:16;;;;;;;35.90;12.30;;;;;;;10.77;67.05;101899.06;107515;1254;112045;-68
2023/05/13 00:42:44;;;;;;;27.70;11.20;;;;;;;10.77;67.12;101899.98;107587;1254;109344;-66
2023/05/13 00:45:13;;;;;;;30.30;11.40;;;;;;;10.74;67.33;101902.31;107444;1254;108199;-68
2023/05/13 00:47:43;;;;;;;28.20;11.20;;;;;;;10.67;67.32;101902.61;107562;1254;97573;-66
2023/05/13 00:50:13;;;;;;;22.50;10.00;;;;;;;10.63;67.44;101903.42;107586;1254;98252;-71
2023/05/13 00:52:42;;;;;;;26.60;10.60;;;;;;;10.62;67.52;101900.85;107632;1254;112331;-68
2023/05/13 00:55:10;;;;;;;34.20;12.10;;;;;;;10.61;67.61;101901.98;107660;1255;109723;-70
2023/05/13 00:57:39;;;;;;;24.50;10.70;;;;;;;10.58;67.97;101901.14;107579;1253;108170;-66
2023/05/13 01:00:09;;;;;;;22.20;10.10;;;;;;;10.51;67.70;101897.34;107559;1254;97756;-69
2023/05/13 01:02:53;;;;;;;26.40;10.60;;;;;;;10.47;68.08;101900.98;107632;1254;98373;-67
2023/05/13 01:05:44;;;;;;;23.30;11.50;;;;;;;10.45;68.62;101904.58;107660;1251;111293;-68
2023/05/13 01:08:19;;;;;;;34.90;11.30;;;;;;;10.32;68.39;101905.95;107627;1251;109075;-68
2023/05/13 01:10:52;;;;;;;32.10;10.80;;;;;;;10.21;68.44;101907.41;107567;1251;108198;-66
2023/05/13 01:13:25;;;;;;;21.40;10.90;;;;;;;10.22;68.81;101906.14;107558;1251;97891;-68
2023/05/13 01:16:00;;;;;;;28.20;10.60;;;;;;;10.24;68.90;101902.55;107640;1256;98024;-68
2023/05/13 01:18:39;;;;;;;22.60;10.40;;;;;;;10.28;69.07;101904.60;107639;1251;111101;-67
2023/05/13 01:21:08;;;;;;;22.10;11.30;;;;;;;10.32;69.11;101900.90;107541;1251;110168;-67
2023/05/13 01:23:37;;;;;;;32.00;10.40;;;;;;;10.32;69.13;101902.00;107577;1250;106474;-67
2023/05/13 01:26:05;;;;;;;31.30;10.50;;;;;;;10.29;69.27;101897.52;107555;1251;97852;-67
2023/05/13 01:28:35;;;;;;;25.20;10.40;;;;;;;10.29;69.30;101899.37;107576;1254;98655;-67
2023/05/13 01:31:05;;;;;;;20.50;9.80;;;;;;;10.29;69.28;101903.30;107580;1251;112251;-66
2023/05/13 01:33:33;;;;;;;19.50;10.00;;;;;;;10.28;69.29;101901.02;107589;1250;110007;-68
2023/05/13 01:36:02;;;;;;;22.30;10.00;;;;;;;10.26;69.20;101902.06;107579;1251;110365;-66
2023/05/13 01:38:33;;;;;;;21.40;10.80;;;;;;;10.26;69.28;101899.77;107618;1250;97835;-68
2023/05/13 01:41:01;;;;;;;25.10;11.00;;;;;;;10.26;69.29;101896.66;107634;1251;99646;-66
2023/05/13 01:43:32;;;;;;;17.50;9.30;;;;;;;10.27;69.06;101892.16;107635;1251;112333;-67
2023/05/13 01:46:01;;;;;;;19.80;9.60;;;;;;;10.27;69.47;101893.73;107636;1251;110176;-65
2023/05/13 01:48:29;;;;;;;22.60;10.00;;;;;;;10.26;69.56;101893.27;107609;1254;106571;-67
2023/05/13 01:50:58;;;;;;;17.60;9.80;;;;;;;10.22;69.74;101894.83;107569;1251;97815;-68
2023/05/13 01:53:26;;;;;;;21.30;9.80;;;;;;;10.18;69.57;101892.41;107642;1251;100461;-67
2023/05/13 01:55:55;;;;;;;30.50;9.70;;;;;;;10.16;69.96;101892.89;107612;1253;112138;-67
2023/05/13 01:58:23;;;;;;;23.60;9.80;;;;;;;10.16;69.97;101896.13;107598;1254;108654;-68
2023/05/13 02:00:52;;;;;;;26.00;9.50;;;;;;;10.15;69.97;101894.05;107590;1251;107180;-68
2023/05/13 02:03:20;;;;;;;20.10;10.20;;;;;;;10.16;70.27;101894.19;107593;1254;97937;-67
2023/05/13 02:05:49;;;;;;;27.90;11.60;;;;;;;10.16;70.31;101893.65;107650;1251;97845;-68
2023/05/13 02:08:18;;;;;;;20.10;10.10;;;;;;;10.18;70.27;101894.33;107585;1251;111600;-67
2023/05/13 02:10:57;;;;;;;18.30;9.70;;;;;;;10.20;70.40;101890.50;107481;1257;108234;-72
2023/05/13 02:13:26;;;;;;;21.50;9.80;;;;;;;10.20;70.31;101890.13;107578;1251;108587;-69
2023/05/13 02:15:55;;;;;;;20.30;9.40;;;;;;;10.20;70.30;101893.67;107683;1251;97803;-70
2023/05/13 02:18:23;;;;;;;26.80;10.30;;;;;;;10.19;70.58;101891.44;107648;1251;97822;-65
2023/05/13 02:20:52;;;;;;;20.00;9.10;;;;;;;10.15;70.52;101894.43;107567;1254;112390;-69
2023/05/13 02:23:20;;;;;;;20.90;9.60;;;;;;;10.14;70.67;101893.41;107542;1251;108666;-66
2023/05/13 02:25:48;;;;;;;22.20;9.70;;;;;;;10.14;70.72;101893.56;107447;1257;108201;-68
2023/05/13 02:28:17;;;;;;;24.70;9.50;;;;;;;10.14;70.60;101891.39;107667;1251;97730;-68
2023/05/13 02:30:46;;;;;;;24.10;10.20;;;;;;;10.15;70.70;101890.98;107530;1252;97722;-67
2023/05/13 02:33:15;;;;;;;23.10;10.50;;;;;;;10.12;70.78;101884.54;107546;1254;111747;-71
2023/05/13 02:35:43;;;;;;;25.00;10.30;;;;;;;10.16;70.94;101893.77;107583;1254;109435;-66
2023/05/13 02:38:12;;;;;;;28.60;10.40;;;;;;;10.15;70.91;101892.25;107578;1252;109363;-68
2023/05/13 02:40:41;;;;;;;17.60;9.20;;;;;;;10.13;70.87;101888.45;107541;1254;97838;-66
2023/05/13 02:43:09;;;;;;;21.40;10.60;;;;;;;10.14;70.89;101893.20;107626;1256;98373;-67
2023/05/13 02:45:46;;;;;;;23.30;10.80;;;;;;;10.16;71.11;101896.29;107657;1251;111815;-66
2023/05/13 02:48:16;;;;;;;25.40;10.10;;;;;;;10.19;71.14;101895.35;107598;1251;109128;-68
2023/05/13 02:50:44;;;;;;;23.30;10.30;;;;;;;10.21;71.33;101899.37;107547;1256;107622;-67
2023/05/13 02:53:13;;;;;;;25.80;9.90;;;;;;;10.25;71.34;101901.59;107583;1251;97851;-69
2023/05/13 02:55:45;;;;;;;18.50;9.50;;;;;;;10.26;71.07;101898.66;107554;1251;97883;-67
2023/05/13 02:58:14;;;;;;;17.30;9.00;;;;;;;10.27;71.06;101901.26;107593;1254;111732;-67
2023/05/13 03:00:42;;;;;;;18.70;10.00;;;;;;;10.27;70.87;101900.38;107538;1254;109248;-66
2023/05/13 03:03:10;;;;;;;22.40;9.40;;;;;;;10.26;71.21;101897.41;107583;1255;108254;-67
2023/05/13 03:05:39;;;;;;;23.40;9.30;;;;;;;10.22;71.06;101900.36;107687;1256;97694;-68
2023/05/13 03:08:07;;;;;;;19.80;9.90;;;;;;;10.22;71.31;101897.00;107598;1251;97723;-68
2023/05/13 03:10:36;;;;;;;25.10;10.10;;;;;;;10.24;71.23;101896.85;107588;1254;111221;-71
2023/05/13 03:13:04;;;;;;;17.50;9.60;;;;;;;10.26;71.22;101900.10;107619;1251;109034;-68
2023/05/13 03:15:32;;;;;;;19.80;9.40;;;;;;;10.28;71.36;101904.05;107562;1251;108595;-67
2023/05/13 03:18:01;;;;;;;21.20;9.30;;;;;;;10.30;71.30;101904.81;107608;1251;97827;-65
2023/05/13 03:20:30;;;;;;;24.20;9.70;;;;;;;10.34;71.36;101908.49;107620;1251;97713;-66
2023/05/13 03:22:58;;;;;;;29.30;9.30;;;;;;;10.37;71.27;101910.47;107658;1256;111216;-69
2023/05/13 03:25:27;;;;;;;22.10;9.90;;;;;;;10.39;71.27;101913.77;107585;1254;109822;-68
2023/05/13 03:27:57;;;;;;;20.70;9.80;;;;;;;10.42;71.22;101916.61;107597;1251;108433;-68
2023/05/13 03:30:29;;;;;;;20.40;10.10;;;;;;;10.44;71.12;101916.30;107571;1251;98413;-67
2023/05/13 03:33:10;;;;;;;18.70;9.70;;;;;;;10.45;71.21;101913.55;107604;1251;97762;-68
2023/05/13 03:35:39;;;;;;;16.20;8.90;;;;;;;10.45;71.20;101917.44;107577;1254;110906;-67
2023/05/13 03:38:08;;;;;;;23.70;10.20;;;;;;;10.47;71.38;101919.30;107601;1251;109002;-67
2023/05/13 03:40:40;;;;;;;22.20;10.00;;;;;;;10.51;71.48;101918.67;107555;1254;108112;-69
2023/05/13 03:43:09;;;;;;;16.50;9.50;;;;;;;10.54;71.45;101917.94;107421;1254;97840;-68
2023/05/13 03:45:38;;;;;;;26.10;10.00;;;;;;;10.56;71.32;101919.42;107628;1251;98450;-67
2023/05/13 03:48:09;;;;;;;17.90;9.00;;;;;;;10.58;71.28;101919.04;107527;1251;111315;-68
2023/05/13 03:50:39;;;;;;;20.70;11.70;;;;;;;10.60;71.47;101921.77;107650;1251;109882;-67
2023/05/13 03:53:10;;;;;;;19.00;9.70;;;;;;;10.62;71.44;101922.52;107608;1251;108340;-67
2023/05/13 03:55:38;;;;;;;28.40;10.20;;;;;;;10.67;71.50;101923.84;107622;1251;97830;-67
2023/05/13 03:58:14;;;;;;;16.70;8.40;;;;;;;10.72;71.61;101923.66;107577;1251;97922;-67
2023/05/13 04:00:45;;;;;;;17.70;9.90;;;;;;;10.78;71.67;101923.56;107586;1250;111516;-66
2023/05/13 04:03:16;;;;;;;19.20;9.00;;;;;;;10.85;71.57;101929.17;107628;1251;109823;-68
2023/05/13 04:05:45;;;;;;;27.30;11.00;;;;;;;10.90;71.49;101929.20;107660;1256;108818;-67
2023/05/13 04:08:14;;;;;;;17.10;9.30;;;;;;;10.94;71.41;101928.33;107602;1251;97929;-68
2023/05/13 04:10:43;;;;;;;20.60;9.20;;;;;;;11.01;71.31;101933.65;107605;1251;97663;-67
2023/05/13 04:13:12;;;;;;;19.60;8.50;;;;;;;11.08;71.29;101933.86;107605;1251;111113;-66
2023/05/13 04:15:40;;;;;;;19.90;9.60;;;;;;;11.14;71.34;101936.27;107633;1251;110057;-67
2023/05/13 04:18:08;;;;;;;20.10;9.10;;;;;;;11.19;70.90;101938.62;107602;1251;107459;-68
2023/05/13 04:20:38;;;;;;;22.00;9.90;;;;;;;11.20;70.42;101932.60;107620;1250;97678;-65
2023/05/13 04:23:06;;;;;;;21.40;10.00;;;;;;;11.21;69.53;101936.38;107592;1251;97785;-64
2023/05/13 04:25:38;;;;;;;29.10;9.70;;;;;;;11.18;68.78;101936.52;107626;1251;111348;-68
2023/05/13 04:28:06;;;;;;;33.40;9.80;;;;;;;11.18;68.73;101935.80;107551;1254;109600;-68
2023/05/13 04:30:39;;;;;;;25.20;10.50;;;;;;;11.22;68.69;101939.83;107657;1253;108509;-68
2023/05/13 04:33:08;;;;;;;22.10;9.80;;;;;;;11.29;68.61;101944.73;107633;1254;97717;-68
2023/05/13 04:35:37;;;;;;;16.00;9.50;;;;;;;11.40;68.94;101943.06;107554;1254;97726;-67
2023/05/13 04:38:08;;;;;;;29.60;11.60;;;;;;;11.50;68.83;101942.32;107650;1251;112283;-69
2023/05/13 04:40:36;;;;;;;19.10;9.70;;;;;;;11.54;68.08;101944.70;107673;1254;110199;-68
2023/05/13 04:43:08;;;;;;;16.00;9.30;;;;;;;11.56;67.59;101947.94;107665;1251;108071;-67
2023/05/13 04:45:46;;;;;;;24.60;10.40;;;;;;;11.54;66.79;101947.16;107632;1251;97860;-68
2023/05/13 04:48:15;;;;;;;30.90;10.40;;;;;;;11.51;66.37;101953.15;107566;1256;98334;-66
2023/05/13 04:50:47;;;;;;;25.80;10.90;;;;;;;11.48;65.74;101951.21;107530;1254;112431;-68
2023/05/13 04:53:16;;;;;;;26.40;11.80;;;;;;;11.48;65.70;101949.23;107593;1252;108007;-68
2023/05/13 04:55:47;;;;;;;23.40;9.80;;;;;;;11.53;65.66;101951.59;107628;1254;106578;-66
2023/05/13 04:58:16;;;;;;;21.50;10.20;;;;;;;11.61;65.63;101952.84;107644;1251;97753;-67
2023/05/13 05:00:44;;;;;;;31.30;10.70;;;;;;;11.69;65.46;101956.55;107641;1251;97886;-63
2023/05/13 05:03:15;;;;;;;24.50;10.80;;;;;;;11.73;65.25;101956.77;107599;1254;112813;-67
2023/05/13 05:05:43;;;;;;;31.10;11.20;;;;;;;11.80;65.23;101955.88;107537;1254;109009;-67
2023/05/13 05:08:13;;;;;;;31.10;10.40;;;;;;;11.90;65.00;101957.17;107626;1254;108981;-70
2023/05/13 05:10:42;;;;;;;27.80;10.10;;;;;;;11.93;64.08;101963.58;107487;1254;97888;-70
2023/05/13 05:13:11;;;;;;;17.20;9.50;;;;;;;11.85;62.89;101964.13;107594;1251;97815;-69
2023/05/13 05:15:41;;;;;;;19.40;9.40;;;;;;;11.78;62.58;101967.54;107580;1251;112897;-68
2023/05/13 05:18:09;;;;;;;21.70;8.40;;;;;;;11.77;62.78;101967.65;107602;1251;108572;-69
2023/05/13 05:20:39;;;;;;;23.50;10.50;;;;;;;11.78;62.63;101964.11;107607;1251;107263;-70
2023/05/13 05:23:16;;;;;;;25.30;10.70;;;;;;;11.84;62.73;101969.41;107618;1251;97812;-68
2023/05/13 05:25:44;;;;;;;17.30;10.20;;;;;;;11.88;62.87;101970.77;107624;1251;98382;-69
2023/05/13 05:28:13;;;;;;;18.00;9.70;;;;;;;11.91;62.84;101966.45;107574;1254;111961;-67
2023/05/13 05:30:43;;;;;;;18.40;10.30;;;;;;;11.97;63.07;101964.72;107619;1254;109921;-66
2023/05/13 05:33:20;;;;;;;16.00;9.40;;;;;;;12.00;63.03;101964.30;107542;1253;108587;-68
2023/05/13 05:35:50;;;;;;;26.20;11.00;;;;;;;12.02;63.04;101966.65;107569;1254;97739;-68
2023/05/13 05:38:22;;;;;;;20.10;9.60;;;;;;;12.09;63.15;101967.08;107601;1254;97928;-69
2023/05/13 05:40:51;;;;;;;21.30;10.20;;;;;;;12.09;63.05;101969.04;107622;1254;110838;-67
2023/05/13 05:43:20;;;;;;;20.50;9.90;;;;;;;12.16;63.07;101970.66;107620;1254;110053;-69
2023/05/13 05:45:52;;;;;;;24.40;10.60;;;;;;;12.24;62.89;101969.69;107607;1254;108271;-68
2023/05/13 05:48:21;;;;;;;18.80;10.10;;;;;;;12.33;62.83;101966.88;107592;1255;97898;-67
2023/05/13 05:50:49;;;;;;;19.70;9.70;;;;;;;12.41;62.73;101965.02;107551;1253;98376;-67
2023/05/13 05:53:25;;;;;;;16.30;8.90;;;;;;;12.45;62.08;101970.80;107621;1253;112574;-67
2023/05/13 05:55:55;;;;;;;18.20;9.80;;;;;;;12.51;61.58;101974.30;107312;1253;110104;-66
2023/05/13 05:58:25;;;;;;;18.60;9.20;;;;;;;12.56;61.44;101971.23;107592;1256;108745;-69
2023/05/13 06:00:55;;;;;;;15.60;8.60;;;;;;;12.59;61.18;101971.33;107436;1254;97810;-70
2023/05/13 06:03:24;;;;;;;22.80;9.00;;;;;;;12.58;60.37;101974.09;107564;1254;97710;-66
2023/05/13 06:05:53;;;;;;;19.70;8.70;;;;;;;12.52;60.20;101977.29;107634;1254;111441;-70
2023/05/13 06:08:28;;;;;;;17.40;8.80;;;;;;;12.56;60.73;101978.41;107590;1253;109388;-69
2023/05/13 06:10:57;;;;;;;17.20;8.70;;;;;;;12.66;60.55;101976.96;107575;1252;108115;-67
2023/05/13 06:13:26;;;;;;;17.00;8.90;;;;;;;12.77;59.93;101978.77;107555;1254;97855;-67
2023/05/13 06:15:55;;;;;;;17.70;9.30;;;;;;;12.87;59.15;101979.25;107581;1254;98341;-68
2023/05/13 06:18:25;;;;;;;14.60;8.10;;;;;;;13.00;59.19;101979.10;107558;1253;112230;-68
2023/05/13 06:20:54;;;;;;;18.50;8.80;;;;;;;13.23;58.15;101989.13;107538;1254;109114;-69
2023/05/13 06:23:23;;;;;;;20.10;8.40;;;;;;;13.36;56.69;101984.17;107575;1254;108395;-70
2023/05/13 06:25:52;;;;;;;19.30;8.50;;;;;;;13.39;56.46;101980.73;107589;1254;97793;-70
2023/05/13 06:28:20;;;;;;;15.10;7.90;;;;;;;13.47;55.94;101983.30;107593;1254;98422;-69
2023/05/13 06:30:52;;;;;;;22.70;8.80;;;;;;;13.57;55.47;101980.54;107547;1254;111915;-70
2023/05/13 06:33:21;;;;;;;17.60;7.80;;;;;;;13.59;54.97;101984.11;107574;1254;109572;-70
2023/05/13 06:35:49;;;;;;;19.40;8.10;;;;;;;13.62;54.80;101984.61;107584;1252;108174;-67
2023/05/13 06:38:21;;;;;;;17.00;8.50;;;;;;;13.69;54.16;101983.48;107566;1254;97813;-69
2023/05/13 06:40:53;;;;;;;13.80;8.00;;;;;;;13.78;54.03;101988.85;107544;1254;98152;-68
2023/05/13 06:43:28;;;;;;;20.70;7.80;;;;;;;13.85;53.27;101985.80;107577;1254;110532;-66
2023/05/13 06:45:59;;;;;;;23.90;7.70;;;;;;;13.90;53.83;101988.27;107571;1254;110108;-68
2023/05/13 06:48:28;;;;;;;15.90;8.20;;;;;;;13.99;53.97;101988.09;107589;1252;107568;-66
2023/05/13 06:50:57;;;;;;;18.10;8.00;;;;;;;14.10;53.44;101988.25;107577;1254;97809;-70
2023/05/13 06:53:25;;;;;;;14.40;7.60;;;;;;;14.22;53.05;101988.48;107586;1254;97930;-67
2023/05/13 06:55:53;;;;;;;17.80;7.40;;;;;;;14.31;51.80;101992.08;107588;1253;111460;-69
2023/05/13 06:58:22;;;;;;;16.50;7.80;;;;;;;14.35;51.55;101989.16;107568;1254;108758;-68
2023/05/13 07:00:50;;;;;;;12.30;7.50;;;;;;;14.41;51.14;101993.20;107546;1254;108060;-69
2023/05/13 07:03:19;;;;;;;13.50;7.50;;;;;;;14.46;50.99;101989.72;107503;1253;98145;-67
2023/05/13 07:05:48;;;;;;;17.70;7.40;;;;;;;14.52;51.18;101988.67;107616;1254;97886;-70
2023/05/13 07:08:17;;;;;;;20.50;6.60;;;;;;;14.61;50.95;101989.16;107575;1254;111209;-67
2023/05/13 07:10:46;;;;;;;18.10;7.40;;;;;;;14.68;50.16;101991.83;107608;1254;110784;-70
2023/05/13 07:13:14;;;;;;;15.70;7.30;;;;;;;14.79;50.56;101987.30;107597;1254;108877;-68
2023/05/13 07:15:42;;;;;;;18.70;7.70;;;;;;;14.83;50.40;101986.76;107605;1253;97781;-69
2023/05/13 07:18:10;;;;;;;12.30;6.80;;;;;;;14.84;50.36;101989.55;107620;1254;97701;-69
2023/05/13 07:20:38;;;;;;;20.30;8.00;;;;;;;14.90;50.71;101990.48;107608;1254;112145;-68
2023/05/13 07:23:07;;;;;;;13.40;7.90;;;;;;;15.03;51.19;101993.50;107566;1254;109927;-68
2023/05/13 07:25:35;;;;;;;30.60;8.20;;;;;;;15.16;51.41;101993.43;107596;1254;108496;-70
2023/05/13 07:28:04;;;;;;;16.70;8.50;;;;;;;15.31;51.54;101995.38;107578;1252;97827;-68
2023/05/13 07:30:32;;;;;;;22.70;8.20;;;;;;;15.44;51.61;101999.20;107589;1256;98998;-68
2023/05/13 07:33:01;;;;;;;15.60;7.90;;;;;;;15.62;51.43;101990.58;107533;1253;111268;-69
2023/05/13 07:35:29;;;;;;;24.40;8.20;;;;;;;15.80;51.30;101993.33;107672;1253;110155;-67
2023/05/13 07:37:58;;;;;;;16.20;8.80;;;;;;;15.95;50.95;101999.60;107547;1254;108723;-67
2023/05/13 07:40:26;;;;;;;22.60;8.20;;;;;;;16.07;50.70;102000.65;107574;1253;97999;-70
2023/05/13 07:42:54;;;;;;;18.70;7.80;;;;;;;16.16;50.20;101998.89;107600;1254;98458;-68
2023/05/13 07:45:23;;;;;;;23.20;8.40;;;;;;;16.33;50.56;101998.19;107558;1254;111061;-68
2023/05/13 07:47:51;;;;;;;20.00;9.10;;;;;;;16.50;50.18;101994.09;107639;1254;109289;-71
2023/05/13 07:50:20;;;;;;;25.70;8.20;;;;;;;16.65;49.31;101992.48;107599;1254;108401;-69
2023/05/13 07:52:50;;;;;;;32.10;18.10;;;;;;;16.85;49.10;101991.66;107601;1254;97908;-67
2023/05/13 07:55:20;;;;;;;17.20;8.70;;;;;;;17.17;49.39;101989.73;107635;1251;97813;-70
2023/05/13 07:57:49;;;;;;;14.40;7.50;;;;;;;17.50;48.16;101992.48;107694;1251;111760;-68
2023/05/13 08:00:17;;;;;;;24.30;8.00;;;;;;;17.69;47.49;101988.45;106819;1255;1042197;-67
2023/05/13 08:02:46;;;;;;;15.90;6.60;;;;;;;17.85;45.90;101983.64;107599;1254;107309;-69
2023/05/13 08:05:15;;;;;;;12.50;6.70;;;;;;;17.94;43.87;101986.88;107558;1256;97962;-69
2023/05/13 08:07:43;;;;;;;18.50;6.60;;;;;;;17.99;44.49;101985.16;107587;1251;97873;-68
2023/05/13 08:10:12;;;;;;;15.30;5.80;;;;;;;18.11;44.38;101985.52;107622;1251;110508;-69
2023/05/13 08:12:40;;;;;;;15.50;5.40;;;;;;;18.25;43.98;101988.90;107599;1251;109901;-69
2023/05/13 08:15:10;;;;;;;14.30;6.50;;;;;;;18.38;44.06;101987.86;107642;1251;108317;-66
2023/05/13 08:17:38;;;;;;;17.20;5.90;;;;;;;18.53;43.02;101991.27;107552;1251;97727;-70
2023/05/13 08:20:07;;;;;;;14.10;5.00;;;;;;;18.61;42.70;101988.50;107608;1251;97943;-67
2023/05/13 08:22:36;;;;;;;14.60;5.30;;;;;;;18.73;42.19;101988.88;107652;1251;111235;-70
2023/05/13 08:25:04;;;;;;;14.90;5.40;;;;;;;18.76;40.90;101988.30;107637;1250;109063;-68
2023/05/13 08:27:33;;;;;;;15.30;5.40;;;;;;;18.70;41.28;101983.70;107608;1251;108657;-70
2023/05/13 08:30:03;;;;;;;11.90;4.60;;;;;;;18.75;41.07;101986.21;107621;1253;97922;-68
2023/05/13 08:32:32;;;;;;;9.80;4.40;;;;;;;18.77;41.01;101993.45;107627;1253;97899;-69
2023/05/13 08:35:00;;;;;;;11.80;4.50;;;;;;;18.81;40.54;102000.25;107633;1256;110829;-65
2023/05/13 08:37:28;;;;;;;14.30;4.30;;;;;;;18.89;40.62;102004.29;107575;1255;109784;-68
2023/05/13 08:40:00;;;;;;;15.80;4.70;;;;;;;18.91;39.90;102002.23;107579;1255;107781;-68
2023/05/13 08:42:32;;;;;;;8.80;4.00;;;;;;;18.81;38.87;101997.59;107590;1253;97913;-69
2023/05/13 08:45:06;;;;;;;18.90;3.90;;;;;;;18.69;39.15;102001.20;107638;1253;97701;-66
2023/05/13 08:47:57;;;;;;;9.10;3.90;;;;;;;18.65;39.52;101995.52;107569;1254;112593;-68
2023/05/13 08:50:29;;;;;;;10.80;4.20;;;;;;;18.61;39.62;101987.74;107627;1254;109726;-70
2023/05/13 08:52:59;;;;;;;10.90;4.30;;;;;;;18.53;39.28;101984.70;107633;1256;109970;-68
2023/05/13 08:55:27;;;;;;;12.80;4.00;;;;;;;18.37;39.24;101979.33;107570;1254;97861;-71
2023/05/13 08:57:56;;;;;;;10.20;4.20;;;;;;;18.26;40.16;101982.41;107612;1251;97903;-67
2023/05/13 09:00:24;;;;;;;9.30;4.20;;;;;;;18.19;40.30;101982.99;107561;1256;111831;-69
2023/05/13 09:02:53;;;;;;;7.70;3.90;;;;;;;18.18;40.09;101979.98;107619;1254;109902;-70
2023/05/13 09:05:21;;;;;;;15.60;4.00;;;;;;;18.23;40.58;101987.13;107625;1254;109009;-69
2023/05/13 09:07:51;;;;;;;11.80;4.30;;;;;;;18.32;40.86;101983.45;107631;1256;97946;-67
2023/05/13 09:10:20;;;;;;;19.70;3.90;;;;;;;18.41;40.32;101982.80;107659;1251;99182;-70
2023/05/13 09:12:52;;;;;;;14.40;3.80;;;;;;;18.48;39.30;101987.45;107680;1251;112269;-68
2023/05/13 09:15:22;;;;;;;8.00;3.50;;;;;;;18.47;38.73;101988.12;107619;1256;109260;-70
2023/05/13 09:18:02;;;;;;;8.80;2.80;;;;;;;18.36;36.70;101984.60;107592;1255;107263;-68
2023/05/13 09:20:31;;;;;;;13.10;2.30;;;;;;;18.33;35.28;101997.19;107586;1252;97822;-70
2023/05/13 09:23:09;;;;;;;10.80;2.30;;;;;;;18.30;33.01;101992.87;107641;1255;97777;-70
2023/05/13 09:25:39;;;;;;;2.70;1.20;;;;;;;18.28;31.65;101995.95;107650;1251;112418;-67
2023/05/13 09:28:07;;;;;;;5.90;1.60;;;;;;;18.23;32.14;101988.73;107657;1251;110090;-70
2023/05/13 09:30:39;;;;;;;6.50;1.50;;;;;;;18.22;33.50;101977.72;107613;1252;107303;-69
2023/05/13 09:33:16;;;;;;;5.20;1.20;;;;;;;18.28;34.26;101976.00;107638;1255;97815;-69
2023/05/13 09:35:51;;;;;;;5.80;1.50;;;;;;;18.34;33.67;101975.95;107660;1251;97816;-69
2023/05/13 09:38:25;;;;;;;7.70;2.30;;;;;;;18.40;34.03;101971.16;107571;1254;112898;-69
2023/05/13 09:40:55;;;;;;;3.00;1.40;;;;;;;18.45;34.25;101973.67;107606;1255;108957;-70
2023/05/13 09:43:31;;;;;;;5.90;1.90;;;;;;;18.52;34.53;101967.56;107606;1254;108702;-68
2023/05/13 09:46:01;;;;;;;35.60;2.50;;;;;;;18.57;34.94;101958.46;107562;1256;98012;-64
2023/05/13 09:48:33;;;;;;;8.70;2.00;;;;;;;18.59;33.83;101955.77;107635;1257;97830;-69
2023/05/13 09:51:01;;;;;;;2.10;1.20;;;;;;;18.54;33.73;101955.55;107661;1255;112273;-65
2023/05/13 09:53:30;;;;;;;6.30;1.50;;;;;;;18.49;32.07;101948.46;107624;1256;109022;-70
2023/05/13 09:56:00;;;;;;;6.00;1.60;;;;;;;18.47;32.18;101941.23;107530;1254;108795;-68
2023/05/13 09:58:29;;;;;;;4.00;1.70;;;;;;;18.50;32.88;101940.52;107541;1254;97815;-68
2023/05/13 10:00:59;;;;;;;6.10;1.30;;;;;;;18.55;33.52;101941.11;107603;1257;97815;-67
2023/05/13 10:03:28;;;;;;;7.60;2.20;;;;;;;18.62;33.61;101941.27;107516;1255;111713;-70
2023/05/13 10:05:58;;;;;;;7.70;1.70;;;;;;;18.67;34.18;101933.35;107622;1251;108848;-68
2023/05/13 10:08:30;;;;;;;3.90;1.90;;;;;;;18.72;33.81;101923.73;107519;1251;108276;-70
2023/05/13 10:10:59;;;;;;;3.70;1.40;;;;;;;18.73;32.82;101921.80;107593;1254;97897;-69
2023/05/13 10:13:30;;;;;;;10.80;1.90;;;;;;;18.70;33.55;101925.02;107646;1251;98343;-70
2023/05/13 10:15:59;;;;;;;22.30;2.60;;;;;;;18.76;34.22;101926.52;107653;1256;110739;-70
2023/05/13 10:18:28;;;;;;;8.60;1.70;;;;;;;18.85;34.14;101926.67;107638;1254;110026;-70
2023/05/13 10:20:57;;;;;;;7.70;1.70;;;;;;;18.92;33.42;101920.86;107624;1254;108559;-69
2023/05/13 10:23:27;;;;;;;8.00;2.30;;;;;;;18.98;34.29;101922.77;107594;1256;97825;-68
2023/05/13 10:26:00;;;;;;;3.40;1.70;;;;;;;19.08;33.75;101924.89;107629;1255;97730;-70
2023/05/13 10:28:29;;;;;;;5.30;1.70;;;;;;;19.12;32.52;101923.78;107635;1251;111275;-69
2023/05/13 10:30:58;;;;;;;7.60;1.90;;;;;;;19.13;32.46;101921.13;107649;1251;108831;-69
2023/05/13 10:33:29;;;;;;;6.90;2.00;;;;;;;19.17;32.62;101919.22;107597;1256;108345;-67
2023/05/13 10:36:29;;;;;;;12.90;2.30;;;;;;;19.21;33.05;101916.08;107631;1254;97817;-70
2023/05/13 10:39:16;;;;;;;14.30;2.20;;;;;;;19.26;33.51;101911.11;107615;1256;98348;-68
2023/05/13 10:42:09;;;;;;;17.70;2.30;;;;;;;19.33;33.94;101910.55;107587;1254;111296;-68
2023/05/13 10:44:38;;;;;;;21.70;2.50;;;;;;;19.45;34.23;101909.27;107643;1251;109832;-67
2023/05/13 10:47:10;;;;;;;30.30;3.50;;;;;;;19.59;34.69;101909.17;107575;1254;108212;-65
2023/05/13 10:49:39;;;;;;;21.00;2.60;;;;;;;19.77;34.61;101904.86;107618;1251;97853;-67
2023/05/13 10:52:13;;;;;;;11.20;2.10;;;;;;;19.99;34.84;101899.15;107565;1253;97811;-70
2023/05/13 10:54:41;;;;;;;19.70;3.40;;;;;;;20.29;34.53;101902.20;107553;1254;111091;-69
2023/05/13 10:57:09;;;;;;;15.20;2.20;;;;;;;20.65;34.10;101901.31;107642;1256;109561;-70
2023/05/13 11:00:14;;;;;;;7.50;2.30;;;;;;;20.96;32.47;101902.55;107576;1251;108025;-68
2023/05/13 11:02:43;;;;;;;14.50;2.10;;;;;;;21.35;33.26;101900.02;107549;1251;97906;-69
2023/05/13 11:05:20;;;;;;;9.90;2.00;;;;;;;21.77;31.74;101898.56;107678;1251;97777;-68
2023/05/13 11:07:56;;;;;;;16.90;2.00;;;;;;;22.16;30.03;101901.95;107652;1251;111797;-69
2023/05/13 11:10:31;;;;;;;6.90;1.80;;;;;;;22.61;30.76;101902.76;107602;1256;108744;-69
2023/05/13 11:13:15;;;;;;;3.10;1.60;;;;;;;22.99;28.56;101901.63;107600;1251;108572;-68
2023/05/13 11:15:54;;;;;;;10.80;2.00;;;;;;;23.32;28.13;101893.69;107574;1257;97931;-68
2023/05/13 11:18:30;;;;;;;12.00;2.00;;;;;;;23.75;28.81;101896.70;107658;1251;98378;-68